createdAt,value
2022-08-01T00:01:32.750Z,22.10
2022-08-01T00:06:17.696Z,22.00
2022-08-01T00:11:02.856Z,22.00
2022-08-01T00:15:54.106Z,22.00
2022-08-01T00:20:37.993Z,21.90
2022-08-01T00:25:34.013Z,21.70
2022-08-01T00:30:18.202Z,21.50
2022-08-01T00:35:01.751Z,21.30
2022-08-01T00:39:45.239Z,21.20
2022-08-01T00:44:30.263Z,21.00
2022-08-01T00:49:14.035Z,21.40
2022-08-01T00:53:57.845Z,21.10
2022-08-01T00:58:41.979Z,20.90
2022-08-01T01:03:57.080Z,20.70
2022-08-01T01:08:43.376Z,20.70
2022-08-01T01:13:36.174Z,20.70
2022-08-01T01:18:37.980Z,20.90
2022-08-01T01:23:42.336Z,20.90
2022-08-01T01:28:35.840Z,20.70
2022-08-01T01:33:23.224Z,20.60
2022-08-01T01:38:11.295Z,20.50
2022-08-01T01:42:57.292Z,20.40
2022-08-01T01:47:42.303Z,20.30
2022-08-01T01:52:28.657Z,20.10
2022-08-01T01:57:14.117Z,20.10
2022-08-01T02:02:05.839Z,20.00
2022-08-01T02:06:53.160Z,19.90
2022-08-01T02:12:08.358Z,19.80
2022-08-01T02:16:47.280Z,19.60
2022-08-01T02:21:35.006Z,19.70
2022-08-01T02:26:21.729Z,19.50
2022-08-01T02:31:10.684Z,19.40
2022-08-01T02:36:32.085Z,19.40
2022-08-01T02:41:09.679Z,19.40
2022-08-01T02:45:58.317Z,19.20
2022-08-01T02:50:47.369Z,19.10
2022-08-01T02:55:31.344Z,19.10
2022-08-01T03:00:15.923Z,19.00
2022-08-01T03:05:01.427Z,19.00
2022-08-01T03:09:54.102Z,19.20
2022-08-01T03:14:40.969Z,19.30
2022-08-01T03:19:27.604Z,19.20
2022-08-01T03:24:13.132Z,18.90
2022-08-01T03:29:01.164Z,18.60
2022-08-01T03:33:44.773Z,18.50
2022-08-01T03:38:33.485Z,18.50
2022-08-01T03:43:21.616Z,18.40
2022-08-01T03:48:15.526Z,18.30
2022-08-01T03:53:01.414Z,18.30
2022-08-01T03:57:46.752Z,18.40
2022-08-01T04:02:30.963Z,18.20
2022-08-01T04:07:29.560Z,18.10
2022-08-01T04:12:13.298Z,18.00
2022-08-01T04:16:57.118Z,18.00
2022-08-01T04:21:40.692Z,18.00
2022-08-01T04:26:27.235Z,17.90
2022-08-01T04:31:12.808Z,18.00
2022-08-01T04:36:02.402Z,18.00
2022-08-01T04:40:49.143Z,17.90
2022-08-01T04:45:35.015Z,17.90
2022-08-01T04:50:18.469Z,17.90
2022-08-01T04:55:01.968Z,18.00
2022-08-01T04:59:47.494Z,18.20
2022-08-01T05:04:32.345Z,18.30
2022-08-01T05:09:15.943Z,18.40
2022-08-01T05:13:59.413Z,18.60
2022-08-01T05:18:42.878Z,18.60
2022-08-01T05:23:42.634Z,18.80
2022-08-01T05:28:27.125Z,19.10
2022-08-01T05:33:10.615Z,19.30
2022-08-01T05:37:54.089Z,19.80
2022-08-01T05:42:39.009Z,20.40
2022-08-01T05:47:22.522Z,20.70
2022-08-01T05:52:06.727Z,20.60
2022-08-01T05:56:50.618Z,20.50
2022-08-01T06:01:36.190Z,20.40
2022-08-01T06:06:19.695Z,20.90
2022-08-01T06:11:09.122Z,21.50
2022-08-01T06:15:53.164Z,22.00
2022-08-01T06:20:38.053Z,22.40
2022-08-01T06:25:21.799Z,22.80
2022-08-01T06:30:06.190Z,23.20
2022-08-01T06:34:49.737Z,23.50
2022-08-01T06:39:34.682Z,23.20
2022-08-01T06:44:18.265Z,23.60
2022-08-01T06:49:01.896Z,24.00
2022-08-01T06:53:45.475Z,24.30
2022-08-01T06:58:31.011Z,23.80
2022-08-01T07:03:15.342Z,23.80
2022-08-01T07:07:58.878Z,24.60
2022-08-01T07:12:42.345Z,25.10
2022-08-01T07:17:27.272Z,25.40
2022-08-01T07:22:11.014Z,25.80
2022-08-01T07:26:56.269Z,26.20
2022-08-01T07:31:40.078Z,26.30
2022-08-01T07:36:25.303Z,25.90
2022-08-01T07:41:09.285Z,26.10
2022-08-01T07:45:53.282Z,26.70
2022-08-01T07:50:37.416Z,26.50
2022-08-01T07:55:22.862Z,26.80
2022-08-01T08:00:09.583Z,26.80
2022-08-01T08:04:53.520Z,27.20
2022-08-01T08:09:38.140Z,27.80
2022-08-01T08:14:32.445Z,27.80
2022-08-01T08:19:17.272Z,28.30
2022-08-01T08:24:30.179Z,28.20
2022-08-01T08:29:14.113Z,28.30
2022-08-01T08:33:59.513Z,28.90
2022-08-01T08:38:43.389Z,29.00
2022-08-01T08:43:28.345Z,28.90
2022-08-01T08:48:12.390Z,29.20
2022-08-01T08:52:58.522Z,29.30
2022-08-01T08:57:45.402Z,29.80
2022-08-01T09:02:29.042Z,30.50
2022-08-01T09:07:13.024Z,30.60
2022-08-01T09:11:58.949Z,31.00
2022-08-01T09:16:48.891Z,31.50
2022-08-01T09:21:32.717Z,31.70
2022-08-01T09:26:19.365Z,32.10
2022-08-01T09:31:12.203Z,31.70
2022-08-01T09:35:58.710Z,31.70
2022-08-01T09:40:50.592Z,31.10
2022-08-01T09:45:41.277Z,31.10
2022-08-01T09:50:42.082Z,31.80
2022-08-01T09:55:25.687Z,32.90
2022-08-01T10:00:43.825Z,33.30
2022-08-01T10:05:37.327Z,33.80
2022-08-01T10:10:21.246Z,34.20
2022-08-01T10:15:14.289Z,34.40
2022-08-01T10:19:58.711Z,34.50
2022-08-01T10:24:45.304Z,34.40
2022-08-01T10:29:46.484Z,34.80
2022-08-01T10:34:33.612Z,34.20
2022-08-01T10:39:20.088Z,34.20
2022-08-01T10:44:05.282Z,34.90
2022-08-01T10:48:57.048Z,35.20
2022-08-01T10:53:49.861Z,34.90
2022-08-01T10:58:42.581Z,35.50
2022-08-01T11:03:56.262Z,36.40
2022-08-01T11:08:41.105Z,36.60
2022-08-01T11:14:01.989Z,36.80
2022-08-01T11:18:52.837Z,36.60
2022-08-01T11:23:50.388Z,37.20
2022-08-01T11:28:36.541Z,37.50
2022-08-01T11:33:41.154Z,38.00
2022-08-01T11:38:31.617Z,37.80
2022-08-01T11:43:21.567Z,37.10
2022-08-01T11:48:20.785Z,37.90
2022-08-01T11:53:06.077Z,37.70
2022-08-01T11:57:51.022Z,38.30
2022-08-01T12:02:36.212Z,37.50
2022-08-01T12:07:20.744Z,36.40
2022-08-01T12:12:05.095Z,36.50
2022-08-01T12:16:56.575Z,36.60
2022-08-01T12:21:41.264Z,36.80
2022-08-01T12:26:26.593Z,37.60
2022-08-01T12:31:15.731Z,37.70
2022-08-01T12:36:00.971Z,38.20
2022-08-01T12:40:46.021Z,37.60
2022-08-01T12:45:31.561Z,38.00
2022-08-01T12:50:17.645Z,38.00
2022-08-01T12:55:15.373Z,38.40
2022-08-01T13:00:13.082Z,38.00
2022-08-01T13:05:10.618Z,38.50
2022-08-01T13:09:54.657Z,38.50
2022-08-01T13:14:41.766Z,39.50
2022-08-01T13:19:50.482Z,39.50
2022-08-01T13:24:34.132Z,39.70
2022-08-01T13:29:20.013Z,39.70
2022-08-01T13:34:05.543Z,40.70
2022-08-01T13:39:06.687Z,40.20
2022-08-01T13:43:58.356Z,40.90
2022-08-01T13:48:43.117Z,40.90
2022-08-01T13:53:28.413Z,41.10
2022-08-01T13:58:12.092Z,41.20
2022-08-01T14:02:55.712Z,41.20
2022-08-01T14:07:39.235Z,40.30
2022-08-01T14:12:26.532Z,40.40
2022-08-01T14:17:10.083Z,39.90
2022-08-01T14:21:54.653Z,39.80
2022-08-01T14:26:41.104Z,41.10
2022-08-01T14:31:28.706Z,41.40
2022-08-01T14:36:30.394Z,41.70
2022-08-01T14:41:15.438Z,41.40
2022-08-01T14:45:58.990Z,41.90
2022-08-01T14:50:44.002Z,41.50
2022-08-01T14:55:28.275Z,40.10
2022-08-01T15:00:14.085Z,41.10
2022-08-01T15:04:57.577Z,41.60
2022-08-01T15:09:42.891Z,39.70
2022-08-01T15:14:55.608Z,38.40
2022-08-01T15:19:42.473Z,39.30
2022-08-01T15:24:35.478Z,39.30
2022-08-01T15:29:20.418Z,39.40
2022-08-01T15:34:03.997Z,39.00
2022-08-01T15:38:47.556Z,38.70
2022-08-01T15:43:31.114Z,37.80
2022-08-01T15:48:17.444Z,37.50
2022-08-01T15:53:01.036Z,36.50
2022-08-01T15:57:44.524Z,36.20
2022-08-01T16:02:28.185Z,34.60
2022-08-01T16:07:13.209Z,35.00
2022-08-01T16:11:56.844Z,34.70
2022-08-01T16:16:40.428Z,34.70
2022-08-01T16:21:25.340Z,35.20
2022-08-01T16:26:25.970Z,35.40
2022-08-01T16:31:16.254Z,35.30
2022-08-01T16:36:16.996Z,35.70
2022-08-01T16:41:00.944Z,35.40
2022-08-01T16:45:52.927Z,35.70
2022-08-01T16:50:36.523Z,35.40
2022-08-01T16:55:21.379Z,36.20
2022-08-01T17:00:21.031Z,35.20
2022-08-01T17:05:15.553Z,35.00
2022-08-01T17:10:02.273Z,35.20
2022-08-01T17:20:12.293Z,33.40
2022-08-01T17:24:57.252Z,33.00
2022-08-01T17:29:43.556Z,32.80
2022-08-01T17:34:28.071Z,32.70
2022-08-01T17:39:13.635Z,32.50
2022-08-01T17:43:58.700Z,31.50
2022-08-01T17:48:42.245Z,31.10
2022-08-01T17:53:25.913Z,30.60
2022-08-01T17:58:10.204Z,29.90
2022-08-01T18:02:55.270Z,29.30
2022-08-01T18:08:01.792Z,28.50
2022-08-01T18:12:43.037Z,27.90
2022-08-01T18:17:27.406Z,27.60
2022-08-01T18:22:25.721Z,27.30
2022-08-01T18:27:16.946Z,27.10
2022-08-01T18:32:03.357Z,26.90
2022-08-01T18:36:47.185Z,26.50
2022-08-01T18:41:32.556Z,26.40
2022-08-01T18:46:16.449Z,26.10
2022-08-01T18:51:02.263Z,25.90
2022-08-01T18:55:45.795Z,25.80
2022-08-01T19:00:30.920Z,25.70
2022-08-01T19:05:14.589Z,25.60
2022-08-01T19:09:58.327Z,25.50
2022-08-01T19:14:41.872Z,25.40
2022-08-01T19:19:28.201Z,25.30
2022-08-01T19:24:23.394Z,25.20
2022-08-01T19:29:19.151Z,25.10
2022-08-01T19:34:04.265Z,25.00
2022-08-01T19:38:49.581Z,25.00
2022-08-01T19:43:39.018Z,25.10
2022-08-01T19:48:25.006Z,25.20
2022-08-01T19:53:10.766Z,25.20
2022-08-01T19:58:25.892Z,25.00
2022-08-01T20:03:02.333Z,24.80
2022-08-01T20:07:45.968Z,24.60
2022-08-01T20:12:30.649Z,24.60
2022-08-01T20:17:16.178Z,24.50
2022-08-01T20:22:04.685Z,24.50
2022-08-01T20:26:51.182Z,24.50
2022-08-01T20:31:43.909Z,24.40
2022-08-01T20:36:30.762Z,24.50
2022-08-01T20:41:17.738Z,23.70
2022-08-01T20:46:01.969Z,22.30
2022-08-01T20:51:04.094Z,21.60
2022-08-01T20:55:55.794Z,20.80
2022-08-01T21:00:40.428Z,20.40
2022-08-01T21:05:29.600Z,20.20
2022-08-01T21:10:15.490Z,20.10
2022-08-01T21:15:03.309Z,20.00
2022-08-01T21:20:07.784Z,20.00
2022-08-01T21:24:58.981Z,20.00
2022-08-01T21:29:43.041Z,20.00
2022-08-01T21:34:28.103Z,20.00
2022-08-01T21:39:12.181Z,19.70
2022-08-01T21:43:56.772Z,19.60
2022-08-01T21:48:40.911Z,19.60
2022-08-01T21:53:38.491Z,19.70
2022-08-01T21:58:35.397Z,19.60
2022-08-01T22:03:25.225Z,19.50
2022-08-01T22:08:11.807Z,19.60
2022-08-01T22:12:56.946Z,19.50
2022-08-01T22:17:41.110Z,19.10
2022-08-01T22:22:44.536Z,18.90
2022-08-01T22:28:03.279Z,18.90
2022-08-01T22:32:36.055Z,19.00
2022-08-01T22:37:19.742Z,18.80
2022-08-01T22:42:28.556Z,18.70
2022-08-01T22:47:20.417Z,18.70
2022-08-01T22:52:13.344Z,18.80
2022-08-01T22:56:58.405Z,18.70
2022-08-01T23:01:47.998Z,18.70
2022-08-01T23:06:40.164Z,18.50
2022-08-01T23:11:25.334Z,18.40
2022-08-01T23:16:13.365Z,18.40
2022-08-01T23:21:00.817Z,18.30
2022-08-01T23:25:47.862Z,18.30
2022-08-01T23:30:34.282Z,18.30
2022-08-01T23:35:17.811Z,18.30
2022-08-01T23:40:01.296Z,18.30
2022-08-01T23:44:44.809Z,18.40
2022-08-01T23:49:29.860Z,18.40
2022-08-01T23:54:13.525Z,18.40
2022-08-01T23:58:57.371Z,18.40
